Time;durP1;ratioP1;P1;durP2;ratioP2;P2;SDS_P1;SDS_P2;PMS_P1;PMS_P2;Temp;Humidity;BMP_temperature;BMP_pressure;BME280_temperature;BME280_humidity;BME280_pressure;Samples;Min_cycle;Max_cycle;Signal;HPM_P1;HPM_P2
2023/08/02 00:00:34;;;;;;;1.52;1.10;;;;;;;16.85;86.36;99163.47;2064793;28;20029;-77
2023/08/02 00:01:36;;;;;;;1.23;0.88;;;;;;;16.82;86.34;99149.81;2064509;28;20059;-76
2023/08/02 00:02:41;;;;;;;1.30;1.00;;;;;;;16.85;86.27;99155.31;2064903;28;21231;-77
2023/08/02 00:03:43;;;;;;;2.92;1.10;;;;;;;16.83;86.27;99160.31;2071698;28;20050;-76
2023/08/02 00:04:47;;;;;;;1.58;0.90;;;;;;;16.85;86.17;99162.69;2071881;28;20093;-77
2023/08/02 00:05:57;;;;;;;0.90;0.73;;;;;;;16.82;86.18;99164.16;2071998;28;20954;-76
2023/08/02 00:07:00;;;;;;;2.80;0.88;;;;;;;16.83;86.18;99167.66;2065032;28;20030;-76
2023/08/02 00:08:02;;;;;;;1.33;0.90;;;;;;;16.82;86.33;99161.44;2064376;28;20030;-77
2023/08/02 00:09:04;;;;;;;1.00;0.70;;;;;;;16.82;86.33;99163.38;2055917;28;20125;-78
2023/08/02 00:10:08;;;;;;;0.95;0.85;;;;;;;16.81;86.29;99168.03;2057428;28;20055;-77
2023/08/02 00:11:17;;;;;;;1.98;0.93;;;;;;;16.80;86.28;99165.66;2073485;28;20479;-77
2023/08/02 00:12:20;;;;;;;1.42;0.95;;;;;;;16.78;86.30;99176.88;2072972;28;20045;-78
2023/08/02 00:13:27;;;;;;;1.30;1.00;;;;;;;16.79;86.34;99174.94;2072042;28;20034;-75
2023/08/02 00:14:32;;;;;;;0.90;0.68;;;;;;;16.79;86.38;99169.53;2073319;28;20073;-75
2023/08/02 00:15:41;;;;;;;1.30;0.80;;;;;;;16.77;86.21;99167.19;2080228;28;20991;-75
2023/08/02 00:16:43;;;;;;;1.10;0.80;;;;;;;16.76;86.13;99171.00;2064576;28;20797;-75
2023/08/02 00:17:45;;;;;;;1.05;0.73;;;;;;;16.78;86.35;99166.03;2055992;28;20142;-76
2023/08/02 00:18:46;;;;;;;1.10;1.00;;;;;;;16.77;86.15;99166.38;2071958;28;20045;-75
2023/08/02 00:19:48;;;;;;;1.70;1.00;;;;;;;16.77;86.30;99167.19;2071857;28;20137;-75
2023/08/02 00:20:53;;;;;;;2.20;1.10;;;;;;;16.75;86.27;99161.31;2072407;28;20038;-76
2023/08/02 00:21:58;;;;;;;1.48;0.90;;;;;;;16.74;86.31;99167.03;2080083;28;20030;-75
2023/08/02 00:22:59;;;;;;;1.30;0.85;;;;;;;16.75;86.09;99158.59;2072099;28;20069;-75
2023/08/02 00:24:05;;;;;;;1.15;0.80;;;;;;;16.72;86.26;99155.78;2080157;28;20034;-75
2023/08/02 00:25:08;;;;;;;1.00;0.77;;;;;;;16.72;86.06;99164.69;2063703;28;20073;-75
2023/08/02 00:26:09;;;;;;;1.60;0.90;;;;;;;16.73;86.16;99170.91;2056445;28;20091;-76
2023/08/02 00:27:13;;;;;;;1.23;0.80;;;;;;;16.72;86.16;99161.97;2063928;28;20027;-76
2023/08/02 00:28:17;;;;;;;1.08;0.90;;;;;;;16.71;86.05;99173.97;2070996;28;20117;-75
2023/08/02 00:29:21;;;;;;;1.27;0.80;;;;;;;16.69;86.19;99166.19;2064287;28;20112;-76
2023/08/02 00:30:31;;;;;;;1.58;0.70;;;;;;;16.69;86.07;99171.59;2066438;28;20893;-76
2023/08/02 00:31:33;;;;;;;1.20;0.80;;;;;;;16.69;85.99;99170.81;2081207;28;20904;-75
2023/08/02 00:32:43;;;;;;;0.82;0.70;;;;;;;16.68;86.08;99174.69;2072005;28;20035;-76
2023/08/02 00:33:50;;;;;;;1.98;0.70;;;;;;;16.68;86.14;99180.13;2099739;28;20036;-76
2023/08/02 00:34:54;;;;;;;1.15;0.80;;;;;;;16.62;85.91;99165.25;2057527;28;20818;-75
2023/08/02 00:36:01;;;;;;;2.33;0.90;;;;;;;16.66;86.05;99171.53;2072277;28;20035;-76
2023/08/02 00:37:04;;;;;;;1.02;0.63;;;;;;;16.65;86.07;99170.75;2072873;28;20149;-76
2023/08/02 00:38:06;;;;;;;1.60;0.90;;;;;;;16.65;86.06;99167.25;2064286;28;20034;-76
2023/08/02 00:39:08;;;;;;;0.98;0.70;;;;;;;16.63;86.07;99166.81;2055791;28;20036;-75
2023/08/02 00:40:11;;;;;;;1.05;0.70;;;;;;;16.62;86.03;99159.81;2056195;28;20027;-76
2023/08/02 00:41:13;;;;;;;1.02;0.80;;;;;;;16.63;86.02;99166.81;2072197;28;20045;-76
2023/08/02 00:42:15;;;;;;;1.02;0.60;;;;;;;16.60;86.08;99168.28;2080166;28;20019;-75
2023/08/02 00:43:20;;;;;;;1.30;0.75;;;;;;;16.60;85.92;99167.50;2080001;28;20029;-76
2023/08/02 00:44:28;;;;;;;1.10;0.70;;;;;;;16.60;85.86;99172.94;2072831;28;20149;-76
2023/08/02 00:45:30;;;;;;;1.77;0.77;;;;;;;16.60;85.85;99178.38;2065067;28;20035;-75
2023/08/02 00:46:36;;;;;;;2.53;0.80;;;;;;;16.57;85.89;99174.41;2072337;28;20034;-75
2023/08/02 00:47:40;;;;;;;1.02;0.68;;;;;;;16.59;85.78;99176.81;2072340;28;20062;-76
2023/08/02 00:48:45;;;;;;;1.13;0.80;;;;;;;16.53;85.82;99167.34;2064835;28;20090;-75
2023/08/02 00:49:54;;;;;;;0.80;0.70;;;;;;;16.57;85.81;99169.00;2072532;28;20761;-75
2023/08/02 00:50:59;;;;;;;1.00;0.63;;;;;;;16.55;85.93;99176.72;2081351;28;20029;-75
2023/08/02 00:52:00;;;;;;;1.35;0.80;;;;;;;16.55;85.85;99171.28;2079894;28;20033;-76
2023/08/02 00:53:06;;;;;;;1.65;1.17;;;;;;;16.55;85.86;99167.78;2114333;28;20036;-76
2023/08/02 00:54:08;;;;;;;1.23;0.60;;;;;;;16.55;85.88;99170.47;2072513;28;20039;-76
2023/08/02 00:55:12;;;;;;;1.20;0.80;;;;;;;16.54;85.82;99175.13;2063848;28;21261;-75
2023/08/02 00:56:15;;;;;;;1.88;0.80;;;;;;;16.52;85.75;99165.75;2064882;28;20026;-75
2023/08/02 00:57:21;;;;;;;1.23;0.80;;;;;;;16.52;85.49;99176.63;2071918;28;20038;-75
2023/08/02 00:58:23;;;;;;;2.95;0.73;;;;;;;16.52;85.75;99176.63;2065111;28;21150;-75
2023/08/02 00:59:27;;;;;;;0.80;0.80;;;;;;;16.48;85.75;99171.09;2071635;28;20030;-75
2023/08/02 01:00:31;;;;;;;1.10;0.73;;;;;;;16.50;85.55;99170.78;2064141;28;20145;-75
2023/08/02 01:01:38;;;;;;;1.48;0.70;;;;;;;16.48;85.62;99176.53;2073271;28;20151;-76
2023/08/02 01:02:43;;;;;;;0.75;0.70;;;;;;;16.49;85.58;99182.75;2079785;28;20026;-76
2023/08/02 01:03:47;;;;;;;1.23;0.90;;;;;;;16.46;85.67;99173.41;2063953;28;20038;-75
2023/08/02 01:04:49;;;;;;;1.10;0.70;;;;;;;16.47;85.67;99176.91;2056519;28;20867;-76
2023/08/02 01:06:01;;;;;;;0.70;0.60;;;;;;;16.46;85.45;99176.13;2063124;28;20047;-76
2023/08/02 01:07:19;;;;;;;0.80;0.60;;;;;;;16.45;85.55;99178.00;2073001;28;20120;-76
2023/08/02 01:08:26;;;;;;;1.70;0.80;;;;;;;16.42;85.38;99184.16;2059659;28;20039;-76
2023/08/02 01:09:33;;;;;;;0.80;0.70;;;;;;;16.43;85.61;99169.47;2074468;28;20112;-75
2023/08/02 01:10:41;;;;;;;1.15;0.55;;;;;;;16.43;85.43;99177.59;2088886;28;20018;-76
2023/08/02 01:11:48;;;;;;;1.17;0.60;;;;;;;16.42;85.57;99181.47;2075516;28;20034;-76
2023/08/02 01:12:54;;;;;;;0.80;0.77;;;;;;;16.42;85.65;99178.75;2065216;28;20035;-76
2023/08/02 01:13:57;;;;;;;0.93;0.70;;;;;;;16.39;85.41;99178.63;2055987;28;20030;-76
2023/08/02 01:15:04;;;;;;;0.70;0.70;;;;;;;16.39;85.47;99184.88;2064313;28;20068;-76
2023/08/02 01:16:07;;;;;;;0.90;0.65;;;;;;;16.39;85.53;99184.88;2072586;28;20039;-76
2023/08/02 01:17:10;;;;;;;0.98;0.70;;;;;;;16.39;85.69;99186.78;2063511;28;20035;-76
2023/08/02 01:18:14;;;;;;;7.80;0.60;;;;;;;16.37;85.44;99198.00;2048376;28;20082;-76
2023/08/02 01:19:22;;;;;;;1.17;0.70;;;;;;;16.38;85.59;99187.91;2056118;28;20039;-76
2023/08/02 01:20:26;;;;;;;1.60;0.73;;;;;;;16.37;85.44;99173.56;2058548;28;20085;-76
2023/08/02 01:21:28;;;;;;;1.20;0.70;;;;;;;16.36;85.45;99177.44;2079888;27;20916;-76
2023/08/02 01:22:30;;;;;;;1.15;0.75;;;;;;;16.36;85.35;99177.44;2063350;28;20030;-75
2023/08/02 01:23:33;;;;;;;0.88;0.70;;;;;;;16.35;85.51;99178.56;2048190;28;20032;-75
2023/08/02 01:24:37;;;;;;;1.52;0.80;;;;;;;16.32;85.52;99179.25;2064163;28;20813;-75
2023/08/02 01:25:40;;;;;;;1.60;0.65;;;;;;;16.34;85.32;99192.47;2071646;28;20153;-75
2023/08/02 01:26:50;;;;;;;1.42;0.75;;;;;;;16.33;85.41;99180.84;2055879;28;20051;-75
2023/08/02 01:28:00;;;;;;;1.70;0.70;;;;;;;16.32;85.53;99184.69;2069734;28;20862;-75
2023/08/02 01:29:05;;;;;;;0.85;0.60;;;;;;;16.30;85.40;99181.53;2072780;28;20031;-75
2023/08/02 01:30:14;;;;;;;1.65;0.80;;;;;;;16.29;85.44;99169.09;2065167;28;20037;-75
2023/08/02 01:31:21;;;;;;;0.65;0.50;;;;;;;16.28;85.28;99189.22;2074261;28;20130;-75
2023/08/02 01:32:25;;;;;;;1.05;0.88;;;;;;;16.27;85.47;99181.44;2081377;28;20073;-75
2023/08/02 01:33:37;;;;;;;1.05;0.70;;;;;;;16.28;85.45;99178.38;2079637;28;20033;-76
2023/08/02 01:34:40;;;;;;;1.95;0.75;;;;;;;16.26;85.39;99179.88;2081372;28;20018;-76
2023/08/02 01:35:47;;;;;;;0.90;0.63;;;;;;;16.25;85.37;99186.44;2087898;28;20133;-75
2023/08/02 01:36:48;;;;;;;0.95;0.77;;;;;;;16.24;85.36;99190.28;2072253;28;20030;-74
2023/08/02 01:37:53;;;;;;;1.55;0.80;;;;;;;16.24;85.25;99182.16;2072467;28;20137;-74
2023/08/02 01:38:57;;;;;;;1.10;0.77;;;;;;;16.24;85.22;99190.28;2064002;28;20043;-74
2023/08/02 01:39:59;;;;;;;1.52;0.95;;;;;;;16.21;85.41;99184.44;2056847;28;20880;-74
2023/08/02 01:41:03;;;;;;;1.10;0.88;;;;;;;16.20;85.36;99182.03;2063572;28;20042;-75
2023/08/02 01:42:05;;;;;;;0.80;0.70;;;;;;;16.22;85.24;99187.91;2072474;28;20892;-75
2023/08/02 01:43:09;;;;;;;2.05;0.80;;;;;;;16.22;85.38;99185.22;2081012;28;20069;-76
2023/08/02 01:44:13;;;;;;;1.85;0.80;;;;;;;16.21;85.17;99195.28;2064791;28;20849;-75
2023/08/02 01:45:16;;;;;;;1.10;0.80;;;;;;;16.20;85.35;99182.03;2058154;28;20096;-75
2023/08/02 01:46:18;;;;;;;1.80;0.80;;;;;;;16.18;85.39;99176.22;2073068;28;20047;-75
2023/08/02 01:47:20;;;;;;;0.80;0.60;;;;;;;16.20;85.36;99192.91;2072941;28;20107;-76
2023/08/02 01:48:22;;;;;;;0.90;0.73;;;;;;;16.20;85.34;99187.47;2056638;28;20038;-76
2023/08/02 01:49:25;;;;;;;1.65;0.63;;;;;;;16.19;85.33;99185.91;2057109;28;21019;-76
2023/08/02 01:50:29;;;;;;;1.88;0.63;;;;;;;16.18;85.28;99197.91;2090046;28;20032;-77
2023/08/02 01:51:30;;;;;;;0.90;0.70;;;;;;;16.18;85.33;99189.75;2057881;28;20062;-77
2023/08/02 01:52:34;;;;;;;0.93;0.77;;;;;;;16.16;85.47;99192.03;2072807;28;20031;-77
2023/08/02 01:53:36;;;;;;;1.23;0.80;;;;;;;16.16;85.35;99197.44;2081443;28;20039;-75
2023/08/02 01:54:38;;;;;;;0.98;0.73;;;;;;;16.16;85.35;99190.09;2080980;28;21264;-75
2023/08/02 01:55:40;;;;;;;1.05;0.73;;;;;;;16.15;85.23;99190.47;2072860;28;20034;-76
2023/08/02 01:56:47;;;;;;;0.80;0.80;;;;;;;16.15;85.33;99193.16;2081534;28;20100;-77
2023/08/02 01:57:48;;;;;;;1.35;0.57;;;;;;;16.14;85.36;99188.88;2072792;28;20919;-77
2023/08/02 01:58:52;;;;;;;1.95;0.90;;;;;;;16.12;85.24;99196.59;2056871;28;20036;-76
2023/08/02 01:59:55;;;;;;;0.88;0.80;;;;;;;16.11;85.41;99195.78;2066109;28;20061;-76
2023/08/02 02:00:59;;;;;;;0.70;0.60;;;;;;;16.13;85.23;99195.44;2064556;28;20031;-76
2023/08/02 02:02:01;;;;;;;1.45;0.90;;;;;;;16.12;85.33;99191.94;2065482;28;20097;-76
2023/08/02 02:03:06;;;;;;;0.80;0.70;;;;;;;16.11;85.34;99200.41;2065754;28;20153;-75
2023/08/02 02:04:12;;;;;;;1.52;0.70;;;;;;;16.12;85.30;99207.44;2065977;28;20027;-76
2023/08/02 02:05:19;;;;;;;1.30;0.70;;;;;;;16.11;85.12;99200.41;2065950;28;20035;-76
2023/08/02 02:06:20;;;;;;;1.85;0.77;;;;;;;16.11;85.43;99203.13;2073746;28;20153;-75
2023/08/02 02:07:27;;;;;;;0.90;0.70;;;;;;;16.10;85.48;99204.25;2064417;28;20510;-75
2023/08/02 02:08:31;;;;;;;1.45;1.10;;;;;;;16.09;85.34;99208.91;2060040;28;20202;-75
2023/08/02 02:09:33;;;;;;;1.77;0.90;;;;;;;16.08;85.26;99211.94;2080894;28;20892;-75
2023/08/02 02:10:38;;;;;;;0.88;0.70;;;;;;;16.07;85.26;99207.66;2065055;28;20842;-75
2023/08/02 02:11:43;;;;;;;0.88;0.63;;;;;;;16.10;85.57;99210.47;2053488;28;20058;-75
2023/08/02 02:12:45;;;;;;;1.10;0.85;;;;;;;16.10;85.48;99220.53;2065504;28;20031;-75
2023/08/02 02:13:47;;;;;;;1.38;0.88;;;;;;;16.09;85.52;99218.97;2072734;28;20030;-75
2023/08/02 02:14:53;;;;;;;1.15;0.90;;;;;;;16.10;85.52;99215.09;2057216;28;20024;-75
2023/08/02 02:15:57;;;;;;;1.38;0.85;;;;;;;16.10;85.50;99218.59;2050512;28;20039;-75
2023/08/02 02:17:01;;;;;;;1.27;0.90;;;;;;;16.08;85.49;99217.38;2058331;28;20136;-76
2023/08/02 02:18:11;;;;;;;1.77;0.90;;;;;;;16.10;85.48;99217.81;2073815;28;20141;-76
2023/08/02 02:19:13;;;;;;;0.85;0.82;;;;;;;16.10;85.58;99220.53;2073440;28;20145;-76
2023/08/02 02:20:16;;;;;;;2.05;0.90;;;;;;;16.10;85.37;99221.31;2072601;28;20046;-77
2023/08/02 02:21:20;;;;;;;0.80;0.75;;;;;;;16.11;85.60;99222.09;2064800;28;20031;-76
2023/08/02 02:22:27;;;;;;;2.40;0.88;;;;;;;16.09;85.56;99218.97;2065583;28;20043;-78
2023/08/02 02:23:30;;;;;;;0.80;0.80;;;;;;;16.10;85.51;99223.25;2072861;28;20023;-78
2023/08/02 02:24:35;;;;;;;1.05;0.82;;;;;;;16.10;85.55;99225.94;2064349;28;20187;-78
2023/08/02 02:25:41;;;;;;;1.67;0.85;;;;;;;16.09;85.59;99219.75;2056235;28;20130;-78
2023/08/02 02:26:46;;;;;;;1.40;0.98;;;;;;;16.07;85.36;99227.44;2057420;28;20043;-76
2023/08/02 02:27:48;;;;;;;2.97;1.27;;;;;;;16.08;85.42;99222.78;2056173;28;20989;-76
2023/08/02 02:28:52;;;;;;;1.52;1.10;;;;;;;16.07;85.43;99221.22;2064637;28;20046;-76
2023/08/02 02:29:57;;;;;;;1.52;1.30;;;;;;;16.05;85.42;99221.59;2064959;28;20087;-75
2023/08/02 02:31:02;;;;;;;2.33;1.25;;;;;;;16.06;85.58;99219.66;2072724;28;20037;-76
2023/08/02 02:32:05;;;;;;;1.60;1.20;;;;;;;16.06;85.70;99225.09;2056565;28;20120;-76
2023/08/02 02:33:09;;;;;;;1.23;0.95;;;;;;;16.07;85.65;99223.94;2042549;28;20032;-75
2023/08/02 02:34:16;;;;;;;1.85;1.20;;;;;;;16.05;85.70;99226.22;2057740;28;20024;-76
2023/08/02 02:35:19;;;;;;;1.92;1.17;;;;;;;16.02;85.59;99226.91;2065494;28;20856;-76
2023/08/02 02:36:23;;;;;;;1.75;1.23;;;;;;;16.02;85.84;99218.78;2056764;28;20032;-75
2023/08/02 02:37:27;;;;;;;1.67;1.10;;;;;;;15.99;85.81;99223.75;2058491;28;20030;-76
2023/08/02 02:38:31;;;;;;;1.15;1.00;;;;;;;16.05;85.65;99223.50;2065207;28;20031;-76
2023/08/02 02:39:32;;;;;;;1.83;1.20;;;;;;;16.03;85.60;99234.69;2073013;28;20031;-76
2023/08/02 02:40:34;;;;;;;1.48;1.05;;;;;;;16.03;85.76;99225.78;2072407;28;20043;-76
2023/08/02 02:41:35;;;;;;;1.48;1.15;;;;;;;16.04;85.86;99238.19;2064749;28;21058;-76
2023/08/02 02:42:43;;;;;;;1.40;1.20;;;;;;;16.03;85.73;99231.19;2064364;28;20041;-76
2023/08/02 02:43:47;;;;;;;1.42;1.00;;;;;;;16.03;85.76;99236.63;2058272;28;20044;-75
2023/08/02 02:44:48;;;;;;;2.33;1.27;;;;;;;16.02;85.69;99240.47;2065353;28;20901;-75
2023/08/02 02:45:53;;;;;;;3.35;1.30;;;;;;;16.02;85.78;99240.47;2072722;28;20035;-75
2023/08/02 02:46:59;;;;;;;1.40;1.05;;;;;;;16.00;85.83;99235.38;2056885;28;20794;-75
2023/08/02 02:48:03;;;;;;;1.20;1.10;;;;;;;15.99;85.94;99237.31;2058141;28;20932;-75
2023/08/02 02:49:05;;;;;;;1.77;1.20;;;;;;;16.02;85.93;99235.06;2072513;28;20030;-76
2023/08/02 02:50:08;;;;;;;1.33;1.00;;;;;;;16.02;86.03;99245.91;2048651;28;20063;-76
2023/08/02 02:51:11;;;;;;;3.55;1.55;;;;;;;15.99;85.83;99245.44;2056745;28;20036;-76
2023/08/02 02:52:14;;;;;;;1.65;1.23;;;;;;;16.01;85.98;99238.88;2072952;28;20042;-76
2023/08/02 02:53:20;;;;;;;1.60;1.20;;;;;;;16.02;86.03;99240.47;2072384;28;20153;-76
2023/08/02 02:54:25;;;;;;;1.30;1.10;;;;;;;16.02;86.04;99237.75;2066466;28;20050;-75
2023/08/02 02:55:29;;;;;;;1.23;0.98;;;;;;;16.04;86.03;99240.91;2073387;28;20915;-75
2023/08/02 02:56:32;;;;;;;2.47;0.90;;;;;;;16.02;85.85;99241.25;2072953;28;20154;-77
2023/08/02 02:57:38;;;;;;;1.67;1.20;;;;;;;16.04;85.81;99240.91;2081152;27;21259;-77
2023/08/02 02:58:40;;;;;;;1.45;1.10;;;;;;;16.03;85.76;99250.97;2081190;28;20022;-76
2023/08/02 02:59:42;;;;;;;1.25;1.08;;;;;;;16.03;85.85;99236.63;2072588;28;20039;-76
2023/08/02 03:00:45;;;;;;;2.67;1.35;;;;;;;16.04;86.08;99243.59;2080972;28;20094;-75
2023/08/02 03:01:49;;;;;;;1.85;1.30;;;;;;;16.05;85.99;99246.00;2089402;28;20115;-75
2023/08/02 03:02:51;;;;;;;1.17;1.08;;;;;;;16.06;86.08;99249.47;2072138;28;20042;-75
2023/08/02 03:03:53;;;;;;;1.75;1.10;;;;;;;16.06;86.25;99235.94;2064583;28;20236;-75
2023/08/02 03:04:54;;;;;;;1.42;1.20;;;;;;;16.07;86.26;99245.63;2064309;28;20039;-75
2023/08/02 03:05:59;;;;;;;1.52;1.10;;;;;;;16.06;86.11;99233.22;2057255;28;20893;-76
2023/08/02 03:07:05;;;;;;;1.23;1.10;;;;;;;16.08;86.06;99244.47;2081618;28;20134;-75
2023/08/02 03:08:07;;;;;;;1.17;1.08;;;;;;;16.11;85.95;99238.38;2080570;28;20097;-75
2023/08/02 03:09:12;;;;;;;1.00;0.90;;;;;;;16.13;86.18;99246.94;2081220;28;20873;-75
2023/08/02 03:10:16;;;;;;;1.20;1.10;;;;;;;16.12;86.11;99242.69;2072268;28;20026;-76
2023/08/02 03:11:20;;;;;;;1.58;1.08;;;;;;;16.14;86.15;99243.09;2056416;28;20109;-75
2023/08/02 03:12:23;;;;;;;1.25;1.10;;;;;;;16.15;85.89;99240.06;2072984;28;20765;-75
2023/08/02 03:13:27;;;;;;;3.22;0.88;;;;;;;16.17;86.03;99245.13;2072401;28;20901;-75
2023/08/02 03:14:31;;;;;;;1.33;0.88;;;;;;;16.15;85.87;99236.56;2064650;28;20082;-75
2023/08/02 03:15:35;;;;;;;1.10;0.90;;;;;;;16.19;86.01;99242.84;2065337;28;20137;-75
2023/08/02 03:16:43;;;;;;;1.00;0.90;;;;;;;16.20;85.90;99241.72;2073347;28;20871;-74
2023/08/02 03:17:46;;;;;;;1.05;0.95;;;;;;;16.20;85.94;99239.81;2073243;28;20054;-74
2023/08/02 03:18:49;;;;;;;3.22;0.90;;;;;;;16.24;85.80;99237.19;2064460;28;20054;-74
2023/08/02 03:19:53;;;;;;;1.20;1.00;;;;;;;16.25;85.95;99241.47;2056952;28;20031;-75
2023/08/02 03:20:58;;;;;;;1.35;0.93;;;;;;;16.29;85.80;99236.13;2065408;28;20022;-74
2023/08/02 03:21:58;;;;;;;1.20;0.90;;;;;;;16.31;85.66;99252.84;2064107;28;20043;-75
2023/08/02 03:23:00;;;;;;;1.13;0.85;;;;;;;16.31;85.58;99242.00;2064537;28;20875;-75
2023/08/02 03:24:05;;;;;;;2.72;1.20;;;;;;;16.33;85.57;99243.22;2064754;28;20138;-75
2023/08/02 03:25:08;;;;;;;3.33;1.20;;;;;;;16.36;85.53;99239.81;2096085;28;20120;-75
2023/08/02 03:26:11;;;;;;;1.85;1.48;;;;;;;16.35;85.53;99240.94;2064752;28;20043;-75
2023/08/02 03:27:13;;;;;;;1.35;1.20;;;;;;;16.38;85.33;99242.97;2072379;28;21024;-75
2023/08/02 03:28:14;;;;;;;2.08;1.27;;;;;;;16.42;85.38;99248.47;2072645;28;20023;-75
2023/08/02 03:29:23;;;;;;;1.27;1.13;;;;;;;16.42;85.49;99245.75;2064825;28;20066;-75
2023/08/02 03:30:26;;;;;;;1.23;1.10;;;;;;;16.45;85.22;99248.56;2058335;28;20870;-74
2023/08/02 03:31:27;;;;;;;1.90;1.35;;;;;;;16.48;85.30;99246.28;2056578;28;20039;-74
2023/08/02 03:32:29;;;;;;;2.15;1.10;;;;;;;16.48;85.21;99246.28;2072721;28;20196;-74
2023/08/02 03:33:32;;;;;;;3.10;1.20;;;;;;;16.53;85.18;99259.59;2072485;28;20873;-75
2023/08/02 03:34:37;;;;;;;3.35;1.13;;;;;;;16.53;85.00;99244.09;2065784;28;20019;-74
2023/08/02 03:35:42;;;;;;;2.15;1.00;;;;;;;16.57;85.02;99257.75;2073288;28;20027;-75
2023/08/02 03:36:49;;;;;;;1.60;1.00;;;;;;;16.60;84.92;99254.34;2110211;28;20044;-75
2023/08/02 03:37:58;;;;;;;1.83;1.27;;;;;;;16.62;84.70;99254.78;2080750;28;20963;-75
2023/08/02 03:39:01;;;;;;;1.58;1.48;;;;;;;16.64;84.65;99260.63;2081093;28;20026;-75
2023/08/02 03:40:03;;;;;;;1.77;1.52;;;;;;;16.65;84.57;99262.22;2072492;28;20088;-75
2023/08/02 03:41:08;;;;;;;2.75;1.50;;;;;;;16.64;84.53;99256.00;2056368;28;20036;-75
2023/08/02 03:42:10;;;;;;;1.88;1.17;;;;;;;16.69;84.42;99252.25;2057146;28;20047;-75
2023/08/02 03:43:12;;;;;;;1.60;1.05;;;;;;;16.71;84.42;99260.84;2056310;28;20170;-75
2023/08/02 03:44:14;;;;;;;1.80;1.40;;;;;;;16.73;84.33;99255.81;2072447;28;21293;-75
2023/08/02 03:45:15;;;;;;;1.70;1.30;;;;;;;16.74;84.39;99259.31;2064011;28;20210;-75
2023/08/02 03:46:19;;;;;;;1.63;1.33;;;;;;;16.76;84.34;99252.44;2048277;28;20161;-75
2023/08/02 03:47:22;;;;;;;1.38;1.20;;;;;;;16.79;84.16;99249.03;2056847;28;20046;-75
2023/08/02 03:48:28;;;;;;;1.55;1.20;;;;;;;16.81;84.27;99254.91;2056594;28;20039;-75
2023/08/02 03:49:30;;;;;;;2.00;1.58;;;;;;;16.83;84.12;99258.03;2057937;28;20070;-75
2023/08/02 03:50:34;;;;;;;2.50;1.60;;;;;;;16.81;84.06;99243.25;2064510;28;20137;-75
2023/08/02 03:51:36;;;;;;;2.97;1.70;;;;;;;16.84;83.98;99248.75;2072453;28;20026;-75
2023/08/02 03:52:41;;;;;;;1.92;1.42;;;;;;;16.88;83.82;99249.63;2080703;28;20087;-75
2023/08/02 03:53:45;;;;;;;2.28;1.50;;;;;;;16.89;83.84;99242.25;2072420;28;20960;-75
2023/08/02 03:54:49;;;;;;;1.58;1.27;;;;;;;16.90;83.78;99244.63;2063782;28;20031;-76
2023/08/02 03:55:51;;;;;;;1.63;1.20;;;;;;;16.94;83.72;99246.66;2057478;28;20035;-75
2023/08/02 03:56:58;;;;;;;1.40;1.30;;;;;;;16.96;83.59;99244.34;2064531;28;20888;-76
2023/08/02 03:58:00;;;;;;;3.08;1.50;;;;;;;16.96;83.63;99241.63;2065509;28;20027;-75
2023/08/02 03:59:02;;;;;;;1.33;1.20;;;;;;;17.01;83.56;99236.72;2072597;28;20069;-75
2023/08/02 04:00:09;;;;;;;1.63;1.30;;;;;;;17.04;83.61;99248.81;2064252;28;20031;-75
2023/08/02 04:01:18;;;;;;;2.13;1.50;;;;;;;17.07;83.51;99245.38;2066743;28;20143;-75
2023/08/02 04:02:20;;;;;;;2.30;1.27;;;;;;;17.12;83.49;99242.41;2073056;28;20060;-74
2023/08/02 04:03:22;;;;;;;2.90;2.05;;;;;;;17.14;83.39;99240.13;2072304;28;20829;-75
2023/08/02 04:04:23;;;;;;;1.80;1.30;;;;;;;17.18;83.28;99235.56;2110018;27;20093;-75
2023/08/02 04:05:31;;;;;;;1.70;1.38;;;;;;;17.23;83.26;99238.00;2098642;28;20039;-74
2023/08/02 04:06:35;;;;;;;1.52;1.25;;;;;;;17.27;83.20;99238.84;2107875;27;20044;-75
2023/08/02 04:07:37;;;;;;;1.30;1.20;;;;;;;17.31;82.90;99237.00;2107201;28;20083;-75
2023/08/02 04:08:41;;;;;;;1.92;1.30;;;;;;;17.36;82.85;99235.94;2098401;28;20025;-75
2023/08/02 04:09:43;;;;;;;1.45;1.35;;;;;;;17.40;82.67;99238.72;2098903;28;20061;-75
2023/08/02 04:10:50;;;;;;;1.33;1.20;;;;;;;17.44;82.52;99234.16;2098478;28;20078;-75
2023/08/02 04:11:51;;;;;;;1.90;0.95;;;;;;;17.48;82.53;99237.72;2100137;27;20142;-75
2023/08/02 04:12:56;;;;;;;1.75;1.40;;;;;;;17.54;82.28;99230.88;2112971;28;20032;-75
2023/08/02 04:13:58;;;;;;;1.48;1.27;;;;;;;17.62;82.34;99238.00;2104007;28;20021;-75
2023/08/02 04:15:00;;;;;;;1.27;1.05;;;;;;;17.71;82.29;99238.59;2064811;28;20144;-75
2023/08/02 04:16:02;;;;;;;1.35;1.13;;;;;;;17.80;82.06;99243.84;2056038;28;20042;-75
2023/08/02 04:17:07;;;;;;;1.40;1.30;;;;;;;17.88;81.90;99233.91;2057047;28;20042;-75
2023/08/02 04:18:09;;;;;;;1.30;1.10;;;;;;;17.93;81.60;99225.44;2056446;28;20932;-74
2023/08/02 04:19:15;;;;;;;1.30;1.20;;;;;;;17.97;81.21;99237.97;2056991;28;20043;-75
2023/08/02 04:20:19;;;;;;;1.80;1.20;;;;;;;18.00;81.02;99231.00;2056949;28;20043;-75
2023/08/02 04:21:21;;;;;;;2.10;1.42;;;;;;;18.03;80.56;99243.88;2072600;28;20785;-75
2023/08/02 04:22:25;;;;;;;1.58;1.05;;;;;;;18.02;80.38;99236.88;2080269;28;20030;-75
2023/08/02 04:23:27;;;;;;;2.00;1.20;;;;;;;18.00;80.08;99241.88;2064786;28;20899;-74
2023/08/02 04:24:32;;;;;;;1.23;1.10;;;;;;;18.00;79.91;99231.00;2064095;28;20145;-74
2023/08/02 04:25:35;;;;;;;1.27;1.17;;;;;;;17.99;79.82;99234.88;2073002;28;20096;-74
2023/08/02 04:26:36;;;;;;;1.55;1.10;;;;;;;17.96;79.77;99235.59;2072383;28;20019;-74
2023/08/02 04:27:38;;;;;;;1.63;1.30;;;;;;;18.00;79.85;99233.72;2065291;28;20160;-74
2023/08/02 04:28:43;;;;;;;2.83;1.20;;;;;;;17.96;79.83;99236.38;2064260;28;20038;-75
2023/08/02 04:29:44;;;;;;;2.08;1.17;;;;;;;18.03;80.15;99235.72;2072419;28;20019;-74
2023/08/02 04:30:52;;;;;;;1.00;0.90;;;;;;;18.09;80.25;99237.00;2071988;28;20774;-75
2023/08/02 04:31:55;;;;;;;2.45;1.40;;;;;;;18.17;80.27;99241.44;2056585;28;20019;-75
2023/08/02 04:33:02;;;;;;;1.15;1.00;;;;;;;18.29;80.31;99243.97;2064893;28;20039;-75
2023/08/02 04:34:05;;;;;;;1.40;1.30;;;;;;;18.39;80.38;99230.94;2072159;28;20974;-75
2023/08/02 04:35:08;;;;;;;1.75;1.20;;;;;;;18.48;80.23;99228.75;2063832;28;20156;-75
2023/08/02 04:36:10;;;;;;;1.52;1.10;;;;;;;18.58;80.08;99228.13;2056570;28;20028;-76
2023/08/02 04:37:16;;;;;;;1.90;1.10;;;;;;;18.70;79.86;99229.88;2064477;28;21377;-75
2023/08/02 04:38:20;;;;;;;3.08;1.40;;;;;;;18.82;79.49;99234.34;2056641;28;20031;-75
2023/08/02 04:39:23;;;;;;;1.13;1.02;;;;;;;18.92;79.35;99236.47;2056530;28;20866;-75
2023/08/02 04:40:25;;;;;;;3.08;1.20;;;;;;;19.02;79.02;99229.59;2047945;28;20086;-75
2023/08/02 04:41:27;;;;;;;1.10;1.00;;;;;;;19.11;78.62;99233.63;2039913;28;20036;-75
2023/08/02 04:42:32;;;;;;;1.35;1.00;;;;;;;19.21;78.16;99235.72;2056151;28;20047;-75
2023/08/02 04:43:36;;;;;;;1.83;1.35;;;;;;;19.32;77.83;99237.78;2056424;28;20763;-76
2023/08/02 04:44:39;;;;;;;2.10;1.08;;;;;;;19.38;77.41;99233.59;2064378;28;20074;-75
2023/08/02 04:45:40;;;;;;;1.08;0.93;;;;;;;19.48;76.96;99246.56;2079974;28;20030;-75
2023/08/02 04:46:42;;;;;;;1.15;0.88;;;;;;;19.57;76.83;99243.56;2063935;28;20774;-75
2023/08/02 04:47:44;;;;;;;1.98;1.02;;;;;;;19.64;76.34;99244.47;2047778;28;20054;-75
2023/08/02 04:48:46;;;;;;;3.22;1.00;;;;;;;19.74;76.07;99248.47;2048435;28;20075;-75
2023/08/02 04:49:53;;;;;;;1.30;0.88;;;;;;;19.82;75.73;99252.06;2055730;28;20059;-75
2023/08/02 04:50:55;;;;;;;2.47;0.90;;;;;;;19.87;75.19;99241.63;2062095;28;20035;-75
2023/08/02 04:51:56;;;;;;;1.25;1.02;;;;;;;19.92;74.85;99229.56;2056072;28;20020;-75
2023/08/02 04:52:58;;;;;;;2.65;1.33;;;;;;;19.97;74.63;99253.78;2064114;28;20050;-76
2023/08/02 04:54:04;;;;;;;1.20;0.80;;;;;;;19.97;74.06;99242.09;2064003;28;20158;-76
2023/08/02 04:55:11;;;;;;;1.08;0.95;;;;;;;19.99;73.85;99243.31;2057545;28;20908;-76
2023/08/02 04:56:12;;;;;;;1.45;1.00;;;;;;;19.98;73.31;99241.72;2064607;28;20044;-77
2023/08/02 04:57:15;;;;;;;1.67;0.98;;;;;;;19.98;73.17;99258.09;2056109;28;20048;-76
2023/08/02 04:58:20;;;;;;;1.33;0.98;;;;;;;19.95;72.99;99258.06;2073019;28;20026;-75
2023/08/02 04:59:24;;;;;;;2.55;0.88;;;;;;;19.96;72.91;99254.19;2072333;28;20029;-77
2023/08/02 05:00:30;;;;;;;1.10;0.80;;;;;;;19.86;72.87;99245.50;2072282;28;20035;-75
2023/08/02 05:01:35;;;;;;;0.90;0.90;;;;;;;19.91;72.87;99253.34;2072055;28;20042;-77